Formoso, Brazil
Current Conditions -  °F | °C
As of 7:00 AM on Thursday 23 Oct 2014 (Local Time) from SBSC Reporting Station
Broken Clouds Broken Clouds  
Wind Chill: 68°   Ceiling: 4000
Heat Index: 68°   Visibility: 6mi
Dew Point: 61°   Wind: 0mph
Humidity: 78%   Direction: NA
Pressure: 30.12"   Gusts: NA
Location:  22.63°S, 44.52°W
Report Text: SBSC 230900Z 00000KT 9999 BKN040 20/16 Q1020
Loading
Personal Weather Stations






























Interactive Weather Map
Tropical Storm Tracking
New forecast layout! Learn more

10-Day Weather Forecast

Advertisements
Track Severe Weather on mobile